createdAt,value
2023-01-26T00:01:25.464Z,1.30
2023-01-26T00:03:52.352Z,1.30
2023-01-26T00:06:21.240Z,1.30
2023-01-26T00:08:50.318Z,1.30
2023-01-26T00:11:24.443Z,1.30
2023-01-26T00:13:51.667Z,1.30
2023-01-26T00:16:19.167Z,1.30
2023-01-26T00:18:46.124Z,1.30
2023-01-26T00:21:16.008Z,1.30
2023-01-26T00:23:43.307Z,1.30
2023-01-26T00:26:13.240Z,1.20
2023-01-26T00:28:40.455Z,1.20
2023-01-26T00:31:12.971Z,1.20
2023-01-26T00:33:40.138Z,1.20
2023-01-26T00:36:10.862Z,1.20
2023-01-26T00:38:38.516Z,1.20
2023-01-26T00:41:05.739Z,1.20
2023-01-26T00:43:33.855Z,1.20
2023-01-26T00:46:00.803Z,1.20
2023-01-26T00:48:27.638Z,1.20
2023-01-26T00:50:54.539Z,1.20
2023-01-26T00:53:21.343Z,1.30
2023-01-26T00:55:48.153Z,1.20
2023-01-26T00:58:14.982Z,1.30
2023-01-26T01:00:41.903Z,1.30
2023-01-26T01:03:08.924Z,1.30
2023-01-26T01:05:35.761Z,1.30
2023-01-26T01:08:02.891Z,1.20
2023-01-26T01:10:29.884Z,1.20
2023-01-26T01:12:56.797Z,1.20
2023-01-26T01:15:24.645Z,1.20
2023-01-26T01:17:51.613Z,1.20
2023-01-26T01:20:18.753Z,1.20
2023-01-26T01:22:46.944Z,1.20
2023-01-26T01:25:14.275Z,1.30
2023-01-26T01:27:41.208Z,1.30
2023-01-26T01:30:09.460Z,1.30
2023-01-26T01:32:39.671Z,1.30
2023-01-26T01:35:07.777Z,1.30
2023-01-26T01:37:36.859Z,1.30
2023-01-26T01:40:04.320Z,1.30
2023-01-26T01:42:33.065Z,1.30
2023-01-26T01:45:38.913Z,1.30
2023-01-26T01:48:10.549Z,1.30
2023-01-26T01:50:40.093Z,1.30
2023-01-26T01:53:11.974Z,1.30
2023-01-26T01:55:41.291Z,1.30
2023-01-26T01:58:09.036Z,1.30
2023-01-26T02:00:35.941Z,1.30
2023-01-26T02:03:11.304Z,1.30
2023-01-26T02:05:42.669Z,1.30
2023-01-26T02:08:11.397Z,1.30
2023-01-26T02:10:38.382Z,1.30
2023-01-26T02:13:06.743Z,1.30
2023-01-26T02:15:34.400Z,1.30
2023-01-26T02:18:04.588Z,1.30
2023-01-26T02:20:43.824Z,1.30
2023-01-26T02:23:17.859Z,1.30
2023-01-26T02:25:49.788Z,1.30
2023-01-26T02:28:18.062Z,1.30
2023-01-26T02:30:45.747Z,1.30
2023-01-26T02:33:19.059Z,1.30
2023-01-26T02:35:45.942Z,1.30
2023-01-26T02:38:13.196Z,1.30
2023-01-26T02:40:53.558Z,1.30
2023-01-26T02:43:21.303Z,1.30
2023-01-26T02:45:48.138Z,1.30
2023-01-26T02:48:35.099Z,1.30
2023-01-26T02:51:04.491Z,1.20
2023-01-26T02:53:31.923Z,1.20
2023-01-26T02:55:59.125Z,1.20
2023-01-26T02:58:25.946Z,1.20
2023-01-26T03:00:53.248Z,1.30
2023-01-26T03:03:24.561Z,1.30
2023-01-26T03:05:52.294Z,1.30
2023-01-26T03:08:19.174Z,1.30
2023-01-26T03:10:47.583Z,1.30
2023-01-26T03:13:14.850Z,1.30
2023-01-26T03:15:48.066Z,1.30
2023-01-26T03:18:46.228Z,1.30
2023-01-26T03:21:35.393Z,1.30
2023-01-26T03:24:22.096Z,1.20
2023-01-26T03:27:10.897Z,1.20
2023-01-26T03:29:37.720Z,1.20
2023-01-26T03:32:05.576Z,1.20
2023-01-26T03:34:33.355Z,1.20
2023-01-26T03:37:00.940Z,1.20
2023-01-26T03:39:53.832Z,1.20
2023-01-26T03:42:39.317Z,1.10
2023-01-26T03:45:26.099Z,1.20
2023-01-26T03:48:11.809Z,1.10
2023-01-26T03:50:57.203Z,1.10
2023-01-26T03:53:43.407Z,1.10
2023-01-26T03:56:27.286Z,1.10
2023-01-26T03:59:08.104Z,1.00
2023-01-26T04:01:41.173Z,1.10
2023-01-26T04:04:27.536Z,1.10
2023-01-26T04:07:14.781Z,1.10
2023-01-26T04:09:46.333Z,1.10
2023-01-26T04:12:14.146Z,1.10
2023-01-26T04:15:17.031Z,1.10
2023-01-26T04:18:02.381Z,1.10
2023-01-26T04:20:48.423Z,1.10
2023-01-26T04:23:21.453Z,1.10
2023-01-26T04:25:50.435Z,1.00
2023-01-26T04:28:18.160Z,1.10
2023-01-26T04:30:46.503Z,1.10
2023-01-26T04:33:13.898Z,1.10
2023-01-26T04:35:41.023Z,1.10
2023-01-26T04:38:08.402Z,1.10
2023-01-26T04:40:35.317Z,1.10
2023-01-26T04:43:02.851Z,1.00
2023-01-26T04:45:29.706Z,1.00
2023-01-26T04:47:56.839Z,1.00
2023-01-26T04:50:23.662Z,1.00
2023-01-26T04:52:50.920Z,1.00
2023-01-26T04:55:17.781Z,1.00
2023-01-26T04:57:44.665Z,1.00
2023-01-26T05:00:12.487Z,1.00
2023-01-26T05:02:40.592Z,0.90
2023-01-26T05:05:09.140Z,0.90
2023-01-26T05:07:36.432Z,0.80
2023-01-26T05:10:04.121Z,0.80
2023-01-26T05:12:52.706Z,0.80
2023-01-26T05:15:22.177Z,0.80
2023-01-26T05:18:03.773Z,0.80
2023-01-26T05:20:49.971Z,0.80
2023-01-26T05:23:20.414Z,0.80
2023-01-26T05:26:02.753Z,0.80
2023-01-26T05:28:33.860Z,0.80
2023-01-26T05:31:00.801Z,0.80
2023-01-26T05:33:28.105Z,0.80
2023-01-26T05:35:55.379Z,0.80
2023-01-26T05:38:22.421Z,0.80
2023-01-26T05:40:49.512Z,0.80
2023-01-26T05:43:17.144Z,0.80
2023-01-26T05:45:46.992Z,0.80
2023-01-26T05:48:15.265Z,0.70
2023-01-26T05:50:42.273Z,0.70
2023-01-26T05:53:20.379Z,0.70
2023-01-26T05:55:48.734Z,0.80
2023-01-26T05:58:18.365Z,0.80
2023-01-26T06:00:45.192Z,0.70
2023-01-26T06:03:19.327Z,0.70
2023-01-26T06:05:53.847Z,0.70
2023-01-26T06:08:34.028Z,0.70
2023-01-26T06:11:26.509Z,0.70
2023-01-26T06:14:16.283Z,0.70
2023-01-26T06:16:43.684Z,0.70
2023-01-26T06:19:11.818Z,0.70
2023-01-26T06:21:39.988Z,0.70
2023-01-26T06:24:07.334Z,0.70
2023-01-26T06:26:34.329Z,0.80
2023-01-26T06:29:01.184Z,0.70
2023-01-26T06:31:31.667Z,0.70
2023-01-26T06:34:01.271Z,0.70
2023-01-26T06:36:28.385Z,0.70
2023-01-26T06:38:57.155Z,0.70
2023-01-26T06:41:24.643Z,0.70
2023-01-26T06:43:51.527Z,0.70
2023-01-26T06:46:19.636Z,0.70
2023-01-26T06:48:47.253Z,0.70
2023-01-26T06:51:19.990Z,0.70
2023-01-26T06:53:54.800Z,0.70
2023-01-26T06:56:29.043Z,0.60
2023-01-26T06:59:00.597Z,0.60
2023-01-26T07:01:49.070Z,0.60
2023-01-26T07:04:16.957Z,0.60
2023-01-26T07:06:43.860Z,0.60
2023-01-26T07:09:11.185Z,0.60
2023-01-26T07:11:38.164Z,0.60
2023-01-26T07:14:05.458Z,0.60
2023-01-26T07:16:35.840Z,0.60
2023-01-26T07:19:05.947Z,0.60
2023-01-26T07:21:35.528Z,0.60
2023-01-26T07:24:02.410Z,0.60
2023-01-26T07:26:29.231Z,0.50
2023-01-26T07:28:56.408Z,0.50
2023-01-26T07:31:23.425Z,0.50
2023-01-26T07:33:50.320Z,0.50
2023-01-26T07:36:17.194Z,0.50
2023-01-26T07:38:44.098Z,0.40
2023-01-26T07:41:13.016Z,0.40
2023-01-26T07:43:40.380Z,0.40
2023-01-26T07:46:10.836Z,0.40
2023-01-26T07:48:37.811Z,0.40
2023-01-26T07:51:07.149Z,0.40
2023-01-26T07:53:39.402Z,0.40
2023-01-26T07:56:14.406Z,0.40
2023-01-26T07:58:41.606Z,0.50
2023-01-26T08:01:11.169Z,0.50
2023-01-26T08:03:38.594Z,0.40
2023-01-26T08:06:06.898Z,0.40
2023-01-26T08:08:34.716Z,0.40
2023-01-26T08:11:02.589Z,0.40
2023-01-26T08:13:35.673Z,0.50
2023-01-26T08:16:12.447Z,0.50
2023-01-26T08:18:44.609Z,0.50
2023-01-26T08:21:13.681Z,0.50
2023-01-26T08:23:40.904Z,0.50
2023-01-26T08:26:10.747Z,0.50
2023-01-26T08:28:37.909Z,0.50
2023-01-26T08:31:13.668Z,0.50
2023-01-26T08:33:43.831Z,0.60
2023-01-26T08:36:13.428Z,0.60
2023-01-26T08:38:40.851Z,0.50
2023-01-26T08:41:08.984Z,0.50
2023-01-26T08:43:36.046Z,0.60
2023-01-26T08:46:03.515Z,0.60
2023-01-26T08:48:31.621Z,0.50
2023-01-26T08:51:00.663Z,0.50
2023-01-26T08:53:29.791Z,0.50
2023-01-26T08:55:56.731Z,0.50
2023-01-26T08:58:23.608Z,0.40
2023-01-26T09:00:50.773Z,0.40
2023-01-26T09:03:17.799Z,0.40
2023-01-26T09:05:44.721Z,0.40
2023-01-26T09:08:12.256Z,0.40
2023-01-26T09:10:39.495Z,0.50
2023-01-26T09:13:06.513Z,0.40
2023-01-26T09:15:33.396Z,0.50
2023-01-26T09:18:01.125Z,0.50
2023-01-26T09:20:28.788Z,0.50
2023-01-26T09:22:55.692Z,0.50
2023-01-26T09:25:22.531Z,0.50
2023-01-26T09:27:49.391Z,0.50
2023-01-26T09:30:16.759Z,0.50
2023-01-26T09:32:43.987Z,0.40
2023-01-26T09:35:14.819Z,0.50
2023-01-26T09:37:44.219Z,0.50
2023-01-26T09:40:44.950Z,0.50
2023-01-26T09:43:21.038Z,0.50
2023-01-26T09:46:05.984Z,0.50
2023-01-26T09:48:42.083Z,0.50
2023-01-26T09:51:33.590Z,0.50
2023-01-26T09:54:09.359Z,0.40
2023-01-26T09:56:36.241Z,0.40
2023-01-26T09:59:24.382Z,0.40
2023-01-26T10:02:03.691Z,0.40
2023-01-26T10:04:39.448Z,0.40
2023-01-26T10:07:11.538Z,0.40
2023-01-26T10:09:50.907Z,0.50
2023-01-26T10:12:21.009Z,0.50
2023-01-26T10:15:16.284Z,0.40
2023-01-26T10:17:45.825Z,0.40
2023-01-26T10:20:21.746Z,0.40
2023-01-26T10:22:58.420Z,0.40
2023-01-26T10:25:35.641Z,0.40
2023-01-26T10:28:22.132Z,0.40
2023-01-26T10:30:51.331Z,0.50
2023-01-26T10:33:30.414Z,0.50
2023-01-26T10:35:57.586Z,0.50
2023-01-26T10:38:44.403Z,0.50
2023-01-26T10:41:14.283Z,0.40
2023-01-26T10:43:42.551Z,0.40
2023-01-26T10:46:44.618Z,0.40
2023-01-26T10:49:14.700Z,0.40
2023-01-26T10:52:03.010Z,0.40
2023-01-26T10:54:30.049Z,0.40
2023-01-26T10:57:00.265Z,0.40
2023-01-26T10:59:32.872Z,0.40
2023-01-26T11:02:11.858Z,0.30
2023-01-26T11:04:39.935Z,0.30
2023-01-26T11:07:28.470Z,0.20
2023-01-26T11:09:55.694Z,0.20
2023-01-26T11:12:25.628Z,0.20
2023-01-26T11:15:06.524Z,0.20
2023-01-26T11:17:41.611Z,0.20
2023-01-26T11:20:11.451Z,0.20
2023-01-26T11:23:19.403Z,0.20
2023-01-26T11:26:01.217Z,0.20
2023-01-26T11:29:02.334Z,0.20
2023-01-26T11:31:50.243Z,0.20
2023-01-26T11:34:41.796Z,0.30
2023-01-26T11:37:46.670Z,0.30
2023-01-26T11:40:45.539Z,0.20
2023-01-26T11:43:40.303Z,0.30
2023-01-26T11:46:38.973Z,0.30
2023-01-26T11:49:06.271Z,0.30
2023-01-26T11:51:51.777Z,0.20
2023-01-26T11:54:21.664Z,0.30
2023-01-26T11:57:27.893Z,0.30
2023-01-26T12:00:00.307Z,0.30
2023-01-26T12:02:36.707Z,0.30
2023-01-26T12:05:32.178Z,0.20
2023-01-26T12:08:29.654Z,0.20
2023-01-26T12:11:23.057Z,0.20
2023-01-26T12:14:02.641Z,0.20
2023-01-26T12:17:17.657Z,0.10
2023-01-26T12:19:47.917Z,0.20
2023-01-26T12:22:52.501Z,0.20
2023-01-26T12:25:41.122Z,0.20
2023-01-26T12:28:26.514Z,0.10
2023-01-26T12:31:22.214Z,0.10
2023-01-26T12:33:53.723Z,0.00
2023-01-26T12:36:51.555Z,-0.10
2023-01-26T12:39:33.599Z,0.00
2023-01-26T12:42:11.688Z,0.00
2023-01-26T12:44:46.210Z,0.00
2023-01-26T12:47:38.516Z,0.10
2023-01-26T12:50:24.232Z,0.10
2023-01-26T12:53:14.588Z,0.10
2023-01-26T12:56:00.213Z,0.10
2023-01-26T12:58:41.879Z,0.10
2023-01-26T13:01:14.871Z,0.10
2023-01-26T13:03:47.483Z,0.10
2023-01-26T13:06:14.295Z,0.10
2023-01-26T13:08:48.970Z,0.00
2023-01-26T13:11:46.236Z,0.00
2023-01-26T13:14:27.182Z,0.00
2023-01-26T13:16:54.602Z,0.00
2023-01-26T13:19:35.370Z,0.10
2023-01-26T13:22:02.686Z,0.10
2023-01-26T13:24:29.522Z,0.10
2023-01-26T13:27:00.654Z,0.20
2023-01-26T13:29:27.588Z,0.20
2023-01-26T13:31:55.969Z,0.20
2023-01-26T13:34:29.434Z,0.30
2023-01-26T13:37:19.426Z,0.20
2023-01-26T13:39:55.195Z,0.20
2023-01-26T13:42:38.428Z,0.20
2023-01-26T13:45:22.301Z,0.20
2023-01-26T13:47:50.714Z,0.20
2023-01-26T13:50:33.836Z,0.20
2023-01-26T13:53:01.094Z,0.10
2023-01-26T13:55:31.141Z,0.10
2023-01-26T13:58:15.991Z,0.10
2023-01-26T14:00:43.370Z,0.10
2023-01-26T14:03:24.758Z,0.10
2023-01-26T14:06:00.599Z,0.10
2023-01-26T14:08:27.871Z,0.10
2023-01-26T14:10:55.660Z,0.10
2023-01-26T14:13:38.964Z,0.20
2023-01-26T14:16:07.140Z,0.20
2023-01-26T14:18:34.297Z,0.20
2023-01-26T14:21:05.141Z,0.10
2023-01-26T14:23:36.977Z,0.20
2023-01-26T14:26:19.602Z,0.20
2023-01-26T14:28:47.141Z,0.20
2023-01-26T14:31:23.536Z,0.20
2023-01-26T14:33:55.988Z,0.20
2023-01-26T14:36:28.905Z,0.20
2023-01-26T14:38:56.548Z,0.20
2023-01-26T14:41:27.033Z,0.20
2023-01-26T14:44:00.284Z,0.20
2023-01-26T14:46:50.574Z,0.20
2023-01-26T14:49:46.140Z,0.20
2023-01-26T14:52:32.225Z,0.20
2023-01-26T14:55:06.437Z,0.20
2023-01-26T14:57:33.581Z,0.20
2023-01-26T15:00:02.486Z,0.10
2023-01-26T15:02:37.435Z,0.10
2023-01-26T15:05:16.726Z,0.10
2023-01-26T15:08:01.162Z,0.10
2023-01-26T15:10:35.987Z,0.10
2023-01-26T15:13:24.137Z,0.10
2023-01-26T15:16:06.252Z,0.10
2023-01-26T15:18:34.608Z,0.00
2023-01-26T15:21:22.271Z,0.10
2023-01-26T15:23:54.795Z,0.00
2023-01-26T15:26:36.004Z,0.00
2023-01-26T15:29:17.998Z,0.00
2023-01-26T15:31:51.129Z,-0.10
2023-01-26T15:34:47.651Z,0.00
2023-01-26T15:37:32.158Z,-0.10
2023-01-26T15:39:59.181Z,-0.10
2023-01-26T15:42:31.625Z,0.00
2023-01-26T15:44:58.598Z,0.00
2023-01-26T15:47:32.645Z,0.00
2023-01-26T15:49:59.625Z,0.00
2023-01-26T15:52:30.456Z,0.00
2023-01-26T15:54:57.367Z,0.00
2023-01-26T15:57:24.239Z,0.00
2023-01-26T15:59:53.536Z,0.00
2023-01-26T16:02:21.293Z,0.00
2023-01-26T16:04:48.328Z,0.00
2023-01-26T16:07:18.013Z,0.00
2023-01-26T16:09:45.132Z,0.00
2023-01-26T16:12:32.726Z,0.00
2023-01-26T16:15:00.027Z,0.00
2023-01-26T16:17:27.229Z,0.00
2023-01-26T16:19:56.708Z,0.00
2023-01-26T16:22:23.597Z,0.00
2023-01-26T16:24:50.456Z,0.00
2023-01-26T16:27:17.327Z,0.00
2023-01-26T16:29:44.237Z,0.00
2023-01-26T16:32:37.245Z,0.00
2023-01-26T16:35:11.679Z,0.00
2023-01-26T16:37:41.175Z,0.00
2023-01-26T16:40:11.715Z,0.00
2023-01-26T16:42:43.253Z,0.00
2023-01-26T16:45:19.572Z,-0.10
2023-01-26T16:47:50.016Z,-0.10
2023-01-26T16:50:19.464Z,0.00
2023-01-26T16:52:49.204Z,-0.10
2023-01-26T16:55:16.678Z,0.00
2023-01-26T16:57:46.045Z,0.00
2023-01-26T17:00:18.771Z,0.00
2023-01-26T17:02:50.646Z,-0.10
2023-01-26T17:05:19.951Z,-0.10
2023-01-26T17:07:47.504Z,-0.10
2023-01-26T17:10:16.707Z,-0.10
2023-01-26T17:12:44.642Z,-0.10
2023-01-26T17:15:12.584Z,-0.10
2023-01-26T17:17:39.846Z,-0.10
2023-01-26T17:20:18.394Z,-0.20
2023-01-26T17:22:46.407Z,-0.20
2023-01-26T17:25:16.547Z,-0.20
2023-01-26T17:27:44.847Z,-0.20
2023-01-26T17:30:12.201Z,-0.20
2023-01-26T17:32:39.006Z,-0.20
2023-01-26T17:35:06.145Z,-0.20
2023-01-26T17:37:35.731Z,-0.20
2023-01-26T17:40:02.566Z,-0.20
2023-01-26T17:42:30.142Z,-0.30
2023-01-26T17:44:57.928Z,-0.30
2023-01-26T17:47:24.739Z,-0.30
2023-01-26T17:49:51.619Z,-0.30
2023-01-26T17:52:18.605Z,-0.20
2023-01-26T17:54:45.698Z,-0.30
2023-01-26T17:57:14.091Z,-0.20
2023-01-26T17:59:41.086Z,-0.20
2023-01-26T18:02:09.664Z,-0.30
2023-01-26T18:04:36.591Z,-0.30
2023-01-26T18:07:04.172Z,-0.30
2023-01-26T18:09:31.322Z,-0.30
2023-01-26T18:11:58.170Z,-0.30
2023-01-26T18:14:25.108Z,-0.30
2023-01-26T18:16:52.060Z,-0.20
2023-01-26T18:19:19.060Z,-0.30
2023-01-26T18:21:46.095Z,-0.20
2023-01-26T18:24:12.895Z,-0.20
2023-01-26T18:26:40.023Z,-0.20
2023-01-26T18:29:07.395Z,-0.20
2023-01-26T18:31:40.792Z,-0.20
2023-01-26T18:34:08.273Z,-0.30
2023-01-26T18:36:37.568Z,-0.30
2023-01-26T18:39:08.303Z,-0.30
2023-01-26T18:41:35.383Z,-0.30
2023-01-26T18:44:03.830Z,-0.30
2023-01-26T18:46:31.291Z,-0.30
2023-01-26T18:49:02.956Z,-0.30
2023-01-26T18:51:35.667Z,-0.30
2023-01-26T18:54:04.064Z,-0.20
2023-01-26T18:56:31.500Z,-0.30
2023-01-26T18:59:00.989Z,-0.40
2023-01-26T19:01:27.872Z,-0.40
2023-01-26T19:03:55.466Z,-0.40
2023-01-26T19:06:24.161Z,-0.50
2023-01-26T19:09:00.277Z,-0.50
2023-01-26T19:11:32.353Z,-0.50
2023-01-26T19:14:00.566Z,-0.50
2023-01-26T19:16:30.730Z,-0.50
2023-01-26T19:18:58.032Z,-0.60
2023-01-26T19:21:27.529Z,-0.60
2023-01-26T19:23:58.755Z,-0.60
2023-01-26T19:26:29.343Z,-0.60
2023-01-26T19:28:56.206Z,-0.60
2023-01-26T19:31:24.153Z,-0.70
2023-01-26T19:33:56.647Z,-0.60
2023-01-26T19:36:24.323Z,-0.70
2023-01-26T19:38:51.489Z,-0.70
2023-01-26T19:41:19.949Z,-0.70
2023-01-26T19:43:46.843Z,-0.70
2023-01-26T19:46:14.931Z,-0.70
2023-01-26T19:48:41.873Z,-0.70
2023-01-26T19:51:14.815Z,-0.70
2023-01-26T19:53:47.648Z,-0.70
2023-01-26T19:56:26.765Z,-0.70
2023-01-26T19:59:01.758Z,-0.70
2023-01-26T20:01:30.626Z,-0.70
2023-01-26T20:04:00.407Z,-0.70
2023-01-26T20:06:30.518Z,-0.70
2023-01-26T20:08:57.667Z,-0.60
2023-01-26T20:11:26.752Z,-0.60
2023-01-26T20:14:02.027Z,-0.60
2023-01-26T20:16:35.240Z,-0.60
2023-01-26T20:19:03.029Z,-0.50
2023-01-26T20:21:37.084Z,-0.60
2023-01-26T20:24:05.955Z,-0.60
2023-01-26T20:26:37.226Z,-0.60
2023-01-26T20:29:05.407Z,-0.60
2023-01-26T20:31:33.096Z,-0.60
2023-01-26T20:34:01.654Z,-0.60
2023-01-26T20:36:29.399Z,-0.60
2023-01-26T20:39:07.066Z,-0.60
2023-01-26T20:41:34.024Z,-0.70
2023-01-26T20:44:05.964Z,-0.70
2023-01-26T20:46:38.195Z,-0.60
2023-01-26T20:49:08.751Z,-0.60
2023-01-26T20:51:38.257Z,-0.60
2023-01-26T20:54:06.746Z,-0.60
2023-01-26T20:56:33.996Z,-0.60
2023-01-26T20:59:01.033Z,-0.70
2023-01-26T21:01:28.140Z,-0.70
2023-01-26T21:03:57.458Z,-0.70
2023-01-26T21:06:24.687Z,-0.70
2023-01-26T21:08:54.870Z,-0.60
2023-01-26T21:11:24.512Z,-0.60
2023-01-26T21:13:52.196Z,-0.60
2023-01-26T21:16:19.489Z,-0.60
2023-01-26T21:18:46.578Z,-0.60
2023-01-26T21:21:17.773Z,-0.60
2023-01-26T21:23:45.500Z,-0.70
2023-01-26T21:26:14.684Z,-0.80
2023-01-26T21:28:44.597Z,-0.80
2023-01-26T21:31:15.610Z,-0.70
2023-01-26T21:33:45.393Z,-0.70
2023-01-26T21:36:14.900Z,-0.70
2023-01-26T21:38:48.059Z,-0.70
2023-01-26T21:41:38.425Z,-0.70
2023-01-26T21:44:08.005Z,-0.70
2023-01-26T21:46:35.442Z,-0.70
2023-01-26T21:49:02.905Z,-0.70
2023-01-26T21:51:48.685Z,-0.70
2023-01-26T21:54:15.987Z,-0.70
2023-01-26T21:56:43.058Z,-0.70
2023-01-26T21:59:14.554Z,-0.70
2023-01-26T22:01:44.895Z,-0.70
2023-01-26T22:04:14.741Z,-0.70
2023-01-26T22:06:41.712Z,-0.70
2023-01-26T22:09:10.605Z,-0.70
2023-01-26T22:11:39.686Z,-0.80
2023-01-26T22:14:07.812Z,-0.80
2023-01-26T22:16:34.729Z,-0.80
2023-01-26T22:19:01.567Z,-0.80
2023-01-26T22:21:28.468Z,-0.80
2023-01-26T22:23:55.440Z,-0.80
2023-01-26T22:26:23.178Z,-0.70
2023-01-26T22:28:59.720Z,-0.70
2023-01-26T22:31:28.970Z,-0.70
2023-01-26T22:33:58.368Z,-0.70
2023-01-26T22:36:27.751Z,-0.70
2023-01-26T22:38:55.620Z,-0.70
2023-01-26T22:41:26.128Z,-0.70
2023-01-26T22:43:55.621Z,-0.70
2023-01-26T22:46:24.227Z,-0.70
2023-01-26T22:48:51.614Z,-0.70
2023-01-26T22:51:21.711Z,-0.70
2023-01-26T22:53:50.295Z,-0.70
2023-01-26T22:56:17.811Z,-0.70
2023-01-26T22:58:58.140Z,-0.70
2023-01-26T23:01:31.359Z,-0.60
2023-01-26T23:03:59.013Z,-0.70
2023-01-26T23:06:26.021Z,-0.70
2023-01-26T23:08:53.026Z,-0.80
2023-01-26T23:11:25.447Z,-0.80
2023-01-26T23:13:54.076Z,-0.80
2023-01-26T23:16:22.909Z,-0.80
2023-01-26T23:18:50.095Z,-0.80
2023-01-26T23:21:17.153Z,-0.80
2023-01-26T23:23:43.971Z,-0.80
2023-01-26T23:26:11.304Z,-0.80
2023-01-26T23:28:41.023Z,-0.80
2023-01-26T23:31:08.826Z,-0.80
2023-01-26T23:33:36.884Z,-0.80
2023-01-26T23:36:04.817Z,-0.80
2023-01-26T23:38:32.604Z,-0.80
2023-01-26T23:41:00.593Z,-0.80
2023-01-26T23:43:28.086Z,-0.70
2023-01-26T23:45:56.623Z,-0.70
2023-01-26T23:48:24.546Z,-0.70
2023-01-26T23:51:04.055Z,-0.70
2023-01-26T23:53:31.773Z,-0.70
2023-01-26T23:56:16.018Z,-0.70
2023-01-26T23:58:43.185Z,-0.70
